| time (UTC) | temp C | wind direction | speed KPH | gust KPH | rain 1hr cm | rain 24hr cm | rain mn cm | humidity % | barometer mb |
| 20260509012011 | 12 | 175 | 1.6 | 8.0 | 0.00 | 0.00 | 0.00 | 74 | 1008.0 |
| 20260509011530 | 12 | 191 | 0.0 | 6.4 | 0.00 | 0.00 | 0.00 | 73 | 1008.1 |
| 20260509011010 | 13 | 219 | 0.0 | 3.2 | 0.00 | 0.00 | 0.00 | 72 | 1008.1 |
| 20260509010508 | 13 | 219 | 0.0 | 3.2 | 0.00 | 0.00 | 0.00 | 72 | 1008.0 |
| 20260509010028 | 13 | 219 | 0.0 | 6.4 | 0.00 | 0.00 | 0.00 | 71 | 1007.9 |
| 20260509005512 | 13 | 219 | 1.6 | 6.4 | 0.00 | 0.00 | 0.00 | 71 | 1007.9 |
| 20260509005005 | 13 | 212 | 1.6 | 8.0 | 0.00 | 0.00 | 0.00 | 71 | 1007.9 |
| 20260509004531 | 13 | 189 | 3.2 | 8.0 | 0.00 | 0.00 | 0.00 | 70 | 1007.9 |
| 20260509004009 | 13 | 217 | 0.0 | 8.0 | 0.00 | 0.00 | 0.00 | 69 | 1007.9 |
| 20260509003509 | 13 | 233 | 1.6 | 12.9 | 0.00 | 0.00 | 0.00 | 69 | 1007.9 |
| 20260509003026 | 14 | 270 | 1.6 | 12.9 | 0.00 | 0.00 | 0.00 | 68 | 1007.9 |
| 20260509002501 | 14 | 260 | 3.2 | 11.3 | 0.00 | 0.00 | 0.00 | 67 | 1007.8 |
| 20260509002002 | 14 | 224 | 3.2 | 11.3 | 0.00 | 0.00 | 0.00 | 66 | 1007.8 |
| 20260509001510 | 15 | 225 | 3.2 | 16.1 | 0.00 | 0.00 | 0.00 | 65 | 1007.8 |
| 20260509001002 | 15 | 236 | 4.8 | 16.1 | 0.00 | 0.00 | 0.00 | 64 | 1007.8 |
| 20260509000509 | 15 | 225 | 3.2 | 14.5 | 0.00 | 0.00 | 0.00 | 63 | 1007.8 |
| 20260509000018 | 15 | 242 | 6.4 | 14.5 | 0.00 | 0.00 | 0.00 | 61 | 1007.8 |
| 20260508235506 | 15 | 194 | 4.8 | 14.5 | 0.00 | 0.00 | 0.00 | 59 | 1007.7 |
| 20260508235006 | 15 | 210 | 6.4 | 14.5 | 0.00 | 0.00 | 0.00 | 58 | 1007.8 |
| 20260508234519 | 15 | 246 | 6.4 | 14.5 | 0.00 | 0.00 | 0.00 | 57 | 1007.8 |
| 20260508234008 | 15 | 260 | 9.7 | 14.5 | 0.00 | 0.00 | 0.00 | 57 | 1007.9 |
| 20260508233505 | 15 | 219 | 3.2 | 11.3 | 0.00 | 0.00 | 0.00 | 59 | 1007.9 |
| 20260508233025 | 15 | 192 | 1.6 | 14.5 | 0.00 | 0.00 | 0.00 | 59 | 1007.9 |
| 20260508232508 | 15 | 247 | 4.8 | 14.5 | 0.00 | 0.00 | 0.00 | 58 | 1007.9 |
| 20260508232010 | 15 | 234 | 4.8 | 14.5 | 0.00 | 0.00 | 0.00 | 59 | 1007.9 |
| 20260508231526 | 16 | 231 | 6.4 | 16.1 | 0.00 | 0.00 | 0.00 | 59 | 1007.9 |
| 20260508231004 | 16 | 235 | 8.0 | 16.1 | 0.00 | 0.00 | 0.00 | 58 | 1007.9 |
| 20260508230502 | 16 | 288 | 6.4 | 17.7 | 0.00 | 0.00 | 0.00 | 57 | 1007.8 |
| 20260508230012 | 16 | 266 | 6.4 | 17.7 | 0.00 | 0.00 | 0.00 | 57 | 1007.8 |
| 20260508225502 | 16 | 211 | 4.8 | 16.1 | 0.00 | 0.00 | 0.00 | 56 | 1007.8 |
| 20260508225008 | 16 | 250 | 8.0 | 16.1 | 0.00 | 0.00 | 0.00 | 57 | 1007.8 |
| 20260508224527 | 16 | 259 | 6.4 | 16.1 | 0.00 | 0.00 | 0.00 | 57 | 1007.8 |
| 20260508224005 | 16 | 216 | 8.0 | 19.3 | 0.00 | 0.00 | 0.00 | 56 | 1007.8 |
| 20260508223505 | 16 | 211 | 9.7 | 19.3 | 0.00 | 0.00 | 0.00 | 56 | 1007.8 |
| 20260508223035 | 16 | 205 | 4.8 | 17.7 | 0.00 | 0.00 | 0.00 | 57 | 1007.8 |
| 20260508222507 | 16 | 182 | 8.0 | 17.7 | 0.00 | 0.00 | 0.00 | 57 | 1007.8 |
| 20260508222014 | 17 | 163 | 8.0 | 19.3 | 0.00 | 0.00 | 0.00 | 56 | 1007.8 |
| 20260508221526 | 16 | 217 | 6.4 | 22.5 | 0.00 | 0.00 | 0.00 | 57 | 1007.9 |
| 20260508221010 | 17 | 229 | 11.3 | 22.5 | 0.00 | 0.00 | 0.00 | 54 | 1007.8 |
| 20260508220508 | 17 | 236 | 4.8 | 14.5 | 0.00 | 0.00 | 0.00 | 55 | 1007.8 |
| 20260508220011 | 16 | 203 | 4.8 | 16.1 | 0.00 | 0.00 | 0.00 | 56 | 1007.8 |
| 20260508215503 | 16 | 212 | 6.4 | 16.1 | 0.00 | 0.00 | 0.00 | 54 | 1007.9 |
| 20260508215003 | 16 | 222 | 8.0 | 16.1 | 0.00 | 0.00 | 0.00 | 53 | 1007.9 |
| 20260508214516 | 16 | 247 | 8.0 | 16.1 | 0.00 | 0.00 | 0.00 | 53 | 1007.9 |
| 20260508214008 | 16 | 194 | 4.8 | 16.1 | 0.00 | 0.00 | 0.00 | 55 | 1007.9 |
| 20260508213505 | 16 | 205 | 4.8 | 17.7 | 0.00 | 0.00 | 0.00 | 55 | 1008.0 |
| 20260508213022 | 16 | 195 | 4.8 | 17.7 | 0.00 | 0.00 | 0.00 | 53 | 1008.0 |
| 20260508212506 | 16 | 270 | 8.0 | 14.5 | 0.00 | 0.00 | 0.00 | 54 | 1008.1 |
| 20260508212009 | 16 | 252 | 6.4 | 20.9 | 0.00 | 0.00 | 0.00 | 54 | 1008.1 |
| 20260508211525 | 16 | 276 | 8.0 | 24.1 | 0.00 | 0.00 | 0.00 | 53 | 1008.1 |
| 20260508211010 | 16 | 282 | 8.0 | 24.1 | 0.00 | 0.00 | 0.00 | 52 | 1008.1 |
| 20260508210511 | 16 | 245 | 6.4 | 20.9 | 0.00 | 0.00 | 0.00 | 51 | 1008.1 |
| 20260508210026 | 16 | 257 | 6.4 | 20.9 | 0.00 | 0.00 | 0.00 | 49 | 1008.1 |
| 20260508205509 | 16 | 250 | 9.7 | 20.9 | 0.00 | 0.00 | 0.00 | 50 | 1008.1 |
| 20260508205006 | 16 | 193 | 6.4 | 12.9 | 0.00 | 0.00 | 0.00 | 51 | 1008.1 |
| 20260508204514 | 16 | 228 | 8.0 | 12.9 | 0.00 | 0.00 | 0.00 | 52 | 1008.2 |
| 20260508204011 | 16 | 180 | 3.2 | 14.5 | 0.00 | 0.00 | 0.00 | 51 | 1008.2 |
| 20260508203506 | 16 | 205 | 6.4 | 20.9 | 0.00 | 0.00 | 0.00 | 49 | 1008.3 |
| 20260508203024 | 16 | 233 | 6.4 | 20.9 | 0.00 | 0.00 | 0.00 | 46 | 1008.3 |
| 20260508202506 | 17 | 204 | 8.0 | 22.5 | 0.00 | 0.00 | 0.00 | 44 | 1008.2 |
| 20260508202010 | 17 | 260 | 12.9 | 22.5 | 0.00 | 0.00 | 0.00 | 43 | 1008.3 |
| 20260508201526 | 17 | 160 | 8.0 | 20.9 | 0.00 | 0.00 | 0.00 | 49 | 1008.4 |
| 20260508201008 | 17 | 290 | 9.7 | 19.3 | 0.00 | 0.00 | 0.00 | 43 | 1008.5 |
| 20260508200507 | 17 | 233 | 11.3 | 19.3 | 0.00 | 0.00 | 0.00 | 42 | 1008.6 |
| 20260508200028 | 17 | 188 | 9.7 | 24.1 | 0.00 | 0.00 | 0.00 | 47 | 1008.6 |
| 20260508195512 | 17 | 244 | 8.0 | 24.1 | 0.00 | 0.00 | 0.00 | 43 | 1008.7 |
| 20260508195012 | 17 | 224 | 8.0 | 24.1 | 0.00 | 0.00 | 0.00 | 43 | 1008.8 |
| 20260508194526 | 17 | 230 | 14.5 | 24.1 | 0.00 | 0.00 | 0.00 | 42 | 1009.0 |
| 20260508194009 | 17 | 38 | 4.8 | 19.3 | 0.00 | 0.00 | 0.00 | 42 | 1009.0 |
| 20260508193506 | 17 | 183 | 6.4 | 19.3 | 0.00 | 0.00 | 0.00 | 47 | 1009.1 |
| 20260508193018 | 16 | 204 | 4.8 | 20.9 | 0.00 | 0.00 | 0.00 | 43 | 1009.2 |
| 20260508192506 | 16 | 263 | 11.3 | 20.9 | 0.00 | 0.00 | 0.00 | 41 | 1009.4 |
| 20260508192009 | 16 | 227 | 9.7 | 19.3 | 0.00 | 0.00 | 0.00 | 47 | 1009.4 |
| 20260508191534 | 16 | 180 | 4.8 | 16.1 | 0.00 | 0.00 | 0.00 | 46 | 1009.4 |
| 20260508191006 | 16 | 238 | 8.0 | 22.5 | 0.00 | 0.00 | 0.00 | 45 | 1009.6 |
| 20260508190508 | 16 | 194 | 6.4 | 22.5 | 0.00 | 0.00 | 0.00 | 45 | 1009.6 |
| 20260508190031 | 17 | 232 | 3.2 | 20.9 | 0.00 | 0.00 | 0.00 | 45 | 1009.7 |
| 20260508185506 | 17 | 223 | 9.7 | 20.9 | 0.00 | 0.00 | 0.00 | 44 | 1009.7 |
| 20260508185009 | 16 | 198 | 4.8 | 16.1 | 0.00 | 0.00 | 0.00 | 46 | 1009.7 |
| 20260508184526 | 16 | 209 | 8.0 | 19.3 | 0.00 | 0.00 | 0.00 | 43 | 1009.8 |
| 20260508184009 | 16 | 245 | 3.2 | 22.5 | 0.00 | 0.00 | 0.00 | 45 | 1009.9 |
| 20260508183513 | 16 | 225 | 4.8 | 22.5 | 0.00 | 0.00 | 0.00 | 42 | 1010.0 |
| 20260508183033 | 16 | 260 | 8.0 | 19.3 | 0.00 | 0.00 | 0.00 | 46 | 1010.0 |
| 20260508182509 | 16 | 307 | 9.7 | 19.3 | 0.00 | 0.00 | 0.00 | 44 | 1010.0 |
| 20260508182007 | 16 | 233 | 8.0 | 17.7 | 0.00 | 0.00 | 0.00 | 46 | 1010.0 |
| 20260508181523 | 16 | 225 | 4.8 | 17.7 | 0.00 | 0.00 | 0.00 | 45 | 1010.2 |
| 20260508181007 | 16 | 187 | 8.0 | 19.3 | 0.00 | 0.00 | 0.00 | 48 | 1010.2 |
| 20260508180510 | 16 | 211 | 9.7 | 19.3 | 0.00 | 0.00 | 0.00 | 46 | 1010.3 |
| 20260508180026 | 16 | 275 | 6.4 | 20.9 | 0.00 | 0.00 | 0.00 | 49 | 1010.3 |
| 20260508175512 | 16 | 261 | 3.2 | 20.9 | 0.00 | 0.00 | 0.00 | 45 | 1010.4 |
| 20260508175009 | 16 | 207 | 11.3 | 22.5 | 0.00 | 0.00 | 0.00 | 48 | 1010.4 |
| 20260508174528 | 16 | 235 | 8.0 | 22.5 | 0.00 | 0.00 | 0.00 | 44 | 1010.5 |
| 20260508174011 | 16 | 189 | 8.0 | 19.3 | 0.00 | 0.00 | 0.00 | 49 | 1010.5 |
| 20260508173510 | 16 | 232 | 4.8 | 17.7 | 0.00 | 0.00 | 0.00 | 52 | 1010.7 |
| 20260508173030 | 16 | 257 | 6.4 | 17.7 | 0.00 | 0.00 | 0.00 | 48 | 1010.8 |
| 20260508172511 | 16 | 183 | 11.3 | 20.9 | 0.00 | 0.00 | 0.00 | 49 | 1010.9 |
| 20260508172013 | 15 | 162 | 4.8 | 20.9 | 0.00 | 0.00 | 0.00 | 49 | 1010.8 |
| 20260508171535 | 15 | 201 | 6.4 | 17.7 | 0.00 | 0.00 | 0.00 | 51 | 1010.9 |
| 20260508171025 | 15 | 269 | 12.9 | 17.7 | 0.00 | 0.00 | 0.00 | 48 | 1010.9 |
| 20260508170506 | 15 | 310 | 3.2 | 14.5 | 0.00 | 0.00 | 0.00 | 51 | 1011.0 |
| 20260508170020 | 15 | 239 | 6.4 | 17.7 | 0.00 | 0.00 | 0.00 | 48 | 1011.2 |
| 20260508165507 | 15 | 290 | 9.7 | 17.7 | 0.00 | 0.00 | 0.00 | 48 | 1011.3 |
| 20260508165009 | 14 | 171 | 4.8 | 14.5 | 0.00 | 0.00 | 0.00 | 55 | 1011.2 |
| 20260508164528 | 14 | 238 | 6.4 | 19.3 | 0.00 | 0.00 | 0.00 | 51 | 1011.3 |
| 20260508164011 | 14 | 247 | 6.4 | 19.3 | 0.00 | 0.00 | 0.00 | 54 | 1011.4 |
| 20260508163510 | 14 | 220 | 4.8 | 12.9 | 0.00 | 0.00 | 0.00 | 54 | 1011.5 |
| 20260508163025 | 13 | 227 | 3.2 | 16.1 | 0.00 | 0.00 | 0.00 | 56 | 1011.6 |
| 20260508162510 | 13 | 148 | 6.4 | 16.1 | 0.00 | 0.00 | 0.00 | 56 | 1011.6 |
| 20260508162010 | 13 | 205 | 4.8 | 12.9 | 0.00 | 0.00 | 0.00 | 57 | 1011.6 |
| 20260508161532 | 14 | 230 | 4.8 | 12.9 | 0.00 | 0.00 | 0.00 | 56 | 1011.6 |
| 20260508161010 | 14 | 173 | 3.2 | 9.7 | 0.00 | 0.00 | 0.00 | 60 | 1011.6 |
| 20260508160510 | 14 | 218 | 3.2 | 11.3 | 0.00 | 0.00 | 0.00 | 60 | 1011.5 |
| 20260508160029 | 14 | 216 | 4.8 | 11.3 | 0.00 | 0.00 | 0.00 | 63 | 1011.6 |
| 20260508155503 | 13 | 250 | 1.6 | 9.7 | 0.00 | 0.00 | 0.00 | 62 | 1011.5 |
| 20260508155004 | 13 | 257 | 3.2 | 9.7 | 0.00 | 0.00 | 0.00 | 64 | 1011.6 |
| 20260508154510 | 13 | 43 | 1.6 | 8.0 | 0.00 | 0.00 | 0.00 | 63 | 1011.7 |
| 20260508154002 | 13 | 241 | 3.2 | 12.9 | 0.00 | 0.00 | 0.00 | 65 | 1011.7 |
| 20260508153502 | 13 | 95 | 3.2 | 14.5 | 0.00 | 0.00 | 0.00 | 69 | 1011.8 |
| 20260508153010 | 13 | 136 | 9.7 | 20.9 | 0.00 | 0.00 | 0.00 | 66 | 1011.8 |
| 20260508152504 | 13 | 120 | 11.3 | 20.9 | 0.00 | 0.00 | 0.00 | 68 | 1011.9 |
| 20260508152007 | 13 | 134 | 11.3 | 17.7 | 0.00 | 0.00 | 0.00 | 66 | 1012.0 |
| 20260508151518 | 13 | 144 | 3.2 | 12.9 | 0.00 | 0.00 | 0.00 | 67 | 1012.0 |
| 20260508151009 | 13 | 96 | 4.8 | 12.9 | 0.00 | 0.00 | 0.00 | 65 | 1012.0 |
| 20260508150503 | 13 | 257 | 1.6 | 9.7 | 0.00 | 0.00 | 0.00 | 64 | 1011.9 |
| 20260508150021 | 12 | 271 | 3.2 | 8.0 | 0.00 | 0.00 | 0.00 | 66 | 1012.0 |
| 20260508145507 | 12 | 137 | 0.0 | 11.3 | 0.00 | 0.00 | 0.00 | 65 | 1012.2 |
| 20260508145004 | 12 | 306 | 1.6 | 11.3 | 0.00 | 0.00 | 0.00 | 68 | 1012.2 |
| 20260508144514 | 12 | 203 | 6.4 | 9.7 | 0.00 | 0.00 | 0.00 | 68 | 1012.3 |
| 20260508144005 | 12 | 268 | 0.0 | 11.3 | 0.00 | 0.00 | 0.00 | 66 | 1012.2 |
| 20260508143502 | 12 | 257 | 6.4 | 11.3 | 0.00 | 0.00 | 0.00 | 66 | 1012.3 |
| 20260508143016 | 12 | 256 | 3.2 | 8.0 | 0.00 | 0.00 | 0.00 | 70 | 1012.3 |
| 20260508142503 | 11 | 195 | 1.6 | 8.0 | 0.00 | 0.00 | 0.00 | 71 | 1012.4 |
| 20260508142003 | 11 | 300 | 1.6 | 9.7 | 0.00 | 0.00 | 0.00 | 70 | 1012.4 |
| 20260508141512 | 11 | 300 | 4.8 | 9.7 | 0.00 | 0.00 | 0.00 | 72 | 1012.4 |
| 20260508141002 | 11 | 273 | 0.0 | 6.4 | 0.00 | 0.00 | 0.00 | 74 | 1012.4 |
| 20260508140508 | 11 | 281 | 1.6 | 8.0 | 0.00 | 0.00 | 0.00 | 73 | 1012.4 |
| 20260508140015 | 11 | 288 | 3.2 | 8.0 | 0.00 | 0.00 | 0.00 | 72 | 1012.4 |
| 20260508135507 | 11 | 10 | 4.8 | 8.0 | 0.00 | 0.00 | 0.00 | 76 | 1012.3 |
| 20260508135007 | 11 | 33 | 3.2 | 9.7 | 0.00 | 0.00 | 0.00 | 79 | 1012.4 |
| 20260508134519 | 10 | 286 | 4.8 | 9.7 | 0.00 | 0.00 | 0.00 | 81 | 1012.5 |
| 20260508134006 | 10 | 275 | 3.2 | 6.4 | 0.00 | 0.00 | 0.00 | 81 | 1012.5 |
| 20260508133503 | 10 | 313 | 3.2 | 6.4 | 0.00 | 0.00 | 0.00 | 82 | 1012.5 |
| 20260508133017 | 10 | 295 | 3.2 | 9.7 | 0.00 | 0.00 | 0.00 | 82 | 1012.6 |
| 20260508132504 | 9 | 300 | 3.2 | 9.7 | 0.00 | 0.00 | 0.00 | 82 | 1012.6 |
| 20260508132006 | 9 | 301 | 3.2 | 8.0 | 0.00 | 0.00 | 0.00 | 84 | 1012.6 |
| 20260508131516 | 9 | 253 | 1.6 | 8.0 | 0.00 | 0.00 | 0.00 | 85 | 1012.6 |
| 20260508131004 | 9 | 271 | 3.2 | 9.7 | 0.00 | 0.00 | 0.00 | 86 | 1012.6 |
| 20260508130504 | 8 | 296 | 3.2 | 9.7 | 0.00 | 0.00 | 0.00 | 86 | 1012.7 |
| 20260508130021 | 8 | 206 | 1.6 | 6.4 | 0.00 | 0.00 | 0.00 | 88 | 1012.7 |
| 20260508125506 | 8 | 240 | 3.2 | 9.7 | 0.00 | 0.00 | 0.00 | 88 | 1012.6 |
| 20260508125006 | 8 | 265 | 3.2 | 11.3 | 0.00 | 0.00 | 0.00 | 88 | 1012.4 |
| 20260508124519 | 7 | 227 | 3.2 | 11.3 | 0.00 | 0.00 | 0.00 | 89 | 1012.5 |
| 20260508124007 | 7 | 257 | 3.2 | 9.7 | 0.00 | 0.00 | 0.00 | 90 | 1012.6 |
| 20260508123509 | 7 | 261 | 1.6 | 8.0 | 0.00 | 0.00 | 0.00 | 90 | 1012.6 |
| 20260508123022 | 7 | 259 | 1.6 | 8.0 | 0.00 | 0.00 | 0.00 | 91 | 1012.6 |
| 20260508122507 | 7 | 281 | 0.0 | 8.0 | 0.00 | 0.00 | 0.00 | 91 | 1012.6 |
| 20260508122011 | 6 | 200 | 1.6 | 6.4 | 0.00 | 0.00 | 0.00 | 91 | 1012.6 |
| 20260508121519 | 6 | 234 | 1.6 | 11.3 | 0.00 | 0.00 | 0.00 | 92 | 1012.5 |
| 20260508121006 | 6 | 215 | 1.6 | 11.3 | 0.00 | 0.00 | 0.00 | 92 | 1012.4 |
| 20260508120506 | 6 | 208 | 1.6 | 8.0 | 0.00 | 0.00 | 0.00 | 92 | 1012.3 |
| 20260508120033 | 6 | 226 | 4.8 | 8.0 | 0.00 | 0.00 | 0.00 | 92 | 1012.2 |
| 20260508115504 | 6 | 265 | 1.6 | 9.7 | 0.00 | 0.00 | 0.00 | 92 | 1012.0 |
| 20260508115007 | 5 | 227 | 1.6 | 9.7 | 0.00 | 0.00 | 0.00 | 93 | 1012.0 |
| 20260508114518 | 5 | 215 | 3.2 | 6.4 | 0.00 | 0.00 | 0.00 | 93 | 1012.0 |
| 20260508114009 | 5 | 202 | 1.6 | 4.8 | 0.00 | 0.00 | 0.00 | 93 | 1011.9 |
| 20260508113508 | 4 | 346 | 0.0 | 1.6 | 0.00 | 0.00 | 0.00 | 93 | 1011.9 |
| 20260508113023 | 4 | 346 | 0.0 | 0.0 | 0.00 | 0.00 | 0.00 | 93 | 1011.9 |
| 20260508112515 | 3 | 346 | 0.0 | 0.0 | 0.00 | 0.00 | 0.00 | 93 | 1012.0 |
| 20260508112007 | 3 | 346 | 0.0 | 0.0 | 0.00 | 0.00 | 0.00 | 93 | 1012.0 |
| 20260508111528 | 2 | 346 | 0.0 | 0.0 | 0.00 | 0.00 | 0.00 | 93 | 1011.9 |
| 20260508111009 | 2 | 346 | 0.0 | 0.0 | 0.00 | 0.00 | 0.00 | 93 | 1012.0 |
| 20260508110507 | 2 | 346 | 0.0 | 0.0 | 0.00 | 0.00 | 0.00 | 93 | 1011.9 |
| 20260508110022 | 2 | 346 | 0.0 | 0.0 | 0.00 | 0.00 | 0.00 | 92 | 1011.9 |
| 20260508105507 | 2 | 346 | 0.0 | 0.0 | 0.00 | 0.00 | 0.00 | 92 | 1011.9 |
| 20260508105010 | 2 | 346 | 0.0 | 0.0 | 0.00 | 0.00 | 0.00 | 92 | 1011.8 |
| 20260508104523 | 2 | 346 | 0.0 | 0.0 | 0.00 | 0.00 | 0.00 | 92 | 1011.8 |
| 20260508104006 | 2 | 346 | 0.0 | 0.0 | 0.00 | 0.00 | 0.00 | 92 | 1011.9 |
| 20260508103506 | 2 | 346 | 0.0 | 0.0 | 0.00 | 0.00 | 0.00 | 92 | 1011.8 |
| 20260508103025 | 2 | 346 | 0.0 | 0.0 | 0.00 | 0.00 | 0.00 | 92 | 1011.8 |
| 20260508102506 | 2 | 346 | 0.0 | 0.0 | 0.00 | 0.00 | 0.00 | 92 | 1011.7 |
| 20260508102012 | 2 | 346 | 0.0 | 0.0 | 0.00 | 0.00 | 0.00 | 92 | 1011.7 |
| 20260508101526 | 2 | 346 | 0.0 | 0.0 | 0.00 | 0.00 | 0.00 | 92 | 1011.6 |
| 20260508101009 | 2 | 346 | 0.0 | 0.0 | 0.00 | 0.00 | 0.00 | 92 | 1011.6 |
| 20260508100508 | 2 | 346 | 0.0 | 0.0 | 0.00 | 0.00 | 0.00 | 92 | 1011.7 |
| 20260508100025 | 2 | 346 | 0.0 | 0.0 | 0.00 | 0.00 | 0.00 | 92 | 1011.7 |
| 20260508095506 | 2 | 346 | 0.0 | 0.0 | 0.00 | 0.00 | 0.00 | 92 | 1011.7 |
| 20260508095007 | 2 | 346 | 0.0 | 0.0 | 0.00 | 0.00 | 0.00 | 91 | 1011.7 |
| 20260508094526 | 2 | 346 | 0.0 | 0.0 | 0.00 | 0.00 | 0.00 | 91 | 1011.7 |
| 20260508094007 | 2 | 346 | 0.0 | 0.0 | 0.00 | 0.00 | 0.00 | 92 | 1011.6 |
| 20260508093507 | 2 | 346 | 0.0 | 0.0 | 0.00 | 0.00 | 0.00 | 92 | 1011.7 |
| 20260508093024 | 3 | 346 | 0.0 | 0.0 | 0.00 | 0.00 | 0.00 | 92 | 1011.7 |
| 20260508092506 | 3 | 346 | 0.0 | 0.0 | 0.00 | 0.00 | 0.00 | 92 | 1011.6 |
| 20260508092007 | 3 | 346 | 0.0 | 0.0 | 0.00 | 0.00 | 0.00 | 92 | 1011.7 |
| 20260508091523 | 3 | 346 | 0.0 | 0.0 | 0.00 | 0.00 | 0.00 | 92 | 1011.7 |
| 20260508091006 | 3 | 346 | 0.0 | 0.0 | 0.00 | 0.00 | 0.00 | 92 | 1011.7 |
| 20260508090509 | 3 | 346 | 0.0 | 0.0 | 0.00 | 0.00 | 0.00 | 91 | 1011.7 |
| 20260508090026 | 3 | 346 | 0.0 | 0.0 | 0.00 | 0.00 | 0.00 | 92 | 1011.7 |
| 20260508085510 | 3 | 346 | 0.0 | 0.0 | 0.00 | 0.00 | 0.00 | 91 | 1011.8 |
| 20260508085009 | 3 | 346 | 0.0 | 0.0 | 0.00 | 0.00 | 0.00 | 91 | 1011.8 |
| 20260508084525 | 3 | 346 | 0.0 | 0.0 | 0.00 | 0.00 | 0.00 | 91 | 1011.9 |
| 20260508084007 | 3 | 346 | 0.0 | 0.0 | 0.00 | 0.00 | 0.00 | 91 | 1011.9 |
| 20260508083508 | 3 | 346 | 0.0 | 0.0 | 0.00 | 0.00 | 0.00 | 91 | 1011.9 |
| 20260508083025 | 3 | 346 | 0.0 | 0.0 | 0.00 | 0.00 | 0.00 | 91 | 1011.9 |
| 20260508082510 | 3 | 346 | 0.0 | 0.0 | 0.00 | 0.00 | 0.00 | 91 | 1011.9 |
| 20260508082011 | 3 | 346 | 0.0 | 0.0 | 0.00 | 0.00 | 0.00 | 91 | 1012.0 |
| 20260508081532 | 3 | 346 | 0.0 | 0.0 | 0.00 | 0.00 | 0.00 | 91 | 1012.0 |
| 20260508081008 | 3 | 346 | 0.0 | 0.0 | 0.00 | 0.00 | 0.00 | 91 | 1012.0 |
| 20260508080509 | 3 | 346 | 0.0 | 0.0 | 0.00 | 0.00 | 0.00 | 90 | 1011.9 |
| 20260508080022 | 3 | 346 | 0.0 | 0.0 | 0.00 | 0.00 | 0.00 | 90 | 1011.9 |
| 20260508075510 | 4 | 346 | 0.0 | 0.0 | 0.00 | 0.00 | 0.00 | 91 | 1012.0 |
| 20260508075009 | 4 | 346 | 0.0 | 1.6 | 0.00 | 0.00 | 0.00 | 91 | 1012.0 |
| 20260508074527 | 4 | 344 | 0.0 | 3.2 | 0.00 | 0.00 | 0.00 | 91 | 1012.1 |
| 20260508074011 | 4 | 355 | 0.0 | 4.8 | 0.00 | 0.00 | 0.00 | 90 | 1012.1 |
| 20260508073511 | 4 | 348 | 0.0 | 4.8 | 0.00 | 0.00 | 0.00 | 91 | 1012.1 |
| 20260508073027 | 4 | 349 | 0.0 | 3.2 | 0.00 | 0.00 | 0.00 | 90 | 1012.1 |
| 20260508072509 | 4 | 207 | 0.0 | 1.6 | 0.00 | 0.00 | 0.00 | 89 | 1012.1 |
| 20260508072010 | 4 | 207 | 0.0 | 0.0 | 0.00 | 0.00 | 0.00 | 90 | 1012.1 |
| 20260508071526 | 4 | 207 | 0.0 | 1.6 | 0.00 | 0.00 | 0.00 | 90 | 1012.1 |
| 20260508071010 | 4 | 207 | 0.0 | 1.6 | 0.00 | 0.00 | 0.00 | 89 | 1012.1 |
| 20260508070510 | 4 | 207 | 0.0 | 0.0 | 0.00 | 0.00 | 0.00 | 89 | 1012.2 |
| 20260508070030 | 4 | 207 | 0.0 | 1.6 | 0.00 | 0.00 | 0.00 | 89 | 1012.2 |
| 20260508065504 | 4 | 207 | 0.0 | 3.2 | 0.00 | 0.00 | 0.00 | 89 | 1012.2 |
| 20260508065003 | 5 | 207 | 0.0 | 3.2 | 0.00 | 0.00 | 0.00 | 88 | 1012.2 |
| 20260508064506 | 5 | 207 | 0.0 | 0.0 | 0.00 | 0.00 | 0.00 | 88 | 1012.3 |
| 20260508064003 | 5 | 207 | 0.0 | 0.0 | 0.00 | 0.00 | 0.00 | 88 | 1012.3 |
| 20260508063504 | 5 | 207 | 0.0 | 0.0 | 0.00 | 0.00 | 0.00 | 88 | 1012.3 |
| 20260508063010 | 5 | 207 | 0.0 | 1.6 | 0.00 | 0.00 | 0.00 | 88 | 1012.3 |
| 20260508062506 | 5 | 207 | 0.0 | 1.6 | 0.00 | 0.00 | 0.00 | 87 | 1012.4 |
| 20260508062008 | 5 | 207 | 0.0 | 4.8 | 0.00 | 0.00 | 0.00 | 87 | 1012.4 |
| 20260508061512 | 5 | 207 | 0.0 | 4.8 | 0.00 | 0.00 | 0.00 | 87 | 1012.4 |
| 20260508061006 | 5 | 225 | 0.0 | 1.6 | 0.00 | 0.00 | 0.00 | 86 | 1012.4 |
| 20260508060510 | 5 | 222 | 0.0 | 3.2 | 0.00 | 0.00 | 0.00 | 86 | 1012.3 |
| 20260508060019 | 5 | 222 | 0.0 | 3.2 | 0.00 | 0.00 | 0.00 | 86 | 1012.3 |
| 20260508055502 | 5 | 206 | 0.0 | 3.2 | 0.00 | 0.00 | 0.00 | 86 | 1012.3 |
| 20260508055004 | 6 | 206 | 0.0 | 4.8 | 0.00 | 0.00 | 0.00 | 86 | 1012.4 |
| 20260508054507 | 6 | 206 | 0.0 | 4.8 | 0.00 | 0.00 | 0.00 | 86 | 1012.3 |
| 20260508054004 | 6 | 192 | 1.6 | 4.8 | 0.00 | 0.00 | 0.00 | 85 | 1012.3 |
| 20260508053503 | 6 | 186 | 0.0 | 3.2 | 0.00 | 0.00 | 0.00 | 84 | 1012.3 |
| 20260508053006 | 6 | 186 | 0.0 | 4.8 | 0.00 | 0.00 | 0.00 | 84 | 1012.3 |
| 20260508052504 | 6 | 204 | 0.0 | 4.8 | 0.00 | 0.00 | 0.00 | 84 | 1012.3 |
| 20260508052003 | 6 | 186 | 0.0 | 6.4 | 0.00 | 0.00 | 0.00 | 84 | 1012.3 |
| 20260508051525 | 6 | 192 | 0.0 | 9.7 | 0.00 | 0.00 | 0.00 | 84 | 1012.2 |
| 20260508051007 | 6 | 217 | 1.6 | 9.7 | 0.00 | 0.00 | 0.00 | 84 | 1012.3 |
| 20260508050506 | 6 | 189 | 0.0 | 8.0 | 0.00 | 0.00 | 0.00 | 83 | 1012.3 |
| 20260508050015 | 6 | 196 | 1.6 | 8.0 | 0.00 | 0.00 | 0.00 | 83 | 1012.3 |
| 20260508045507 | 6 | 170 | 1.6 | 9.7 | 0.00 | 0.00 | 0.00 | 83 | 1012.4 |
| 20260508045007 | 6 | 183 | 3.2 | 9.7 | 0.00 | 0.00 | 0.00 | 83 | 1012.4 |
| 20260508044522 | 6 | 212 | 3.2 | 9.7 | 0.00 | 0.00 | 0.00 | 83 | 1012.4 |
| 20260508044005 | 6 | 181 | 1.6 | 6.4 | 0.00 | 0.00 | 0.00 | 83 | 1012.4 |
| 20260508043503 | 6 | 178 | 0.0 | 4.8 | 0.00 | 0.00 | 0.00 | 83 | 1012.3 |
| 20260508043017 | 6 | 209 | 0.0 | 4.8 | 0.00 | 0.00 | 0.00 | 82 | 1012.2 |
| 20260508042504 | 6 | 178 | 0.0 | 4.8 | 0.00 | 0.00 | 0.00 | 82 | 1012.2 |
| 20260508042010 | 6 | 200 | 0.0 | 3.2 | 0.00 | 0.00 | 0.00 | 81 | 1012.2 |
| 20260508041514 | 6 | 200 | 0.0 | 4.8 | 0.00 | 0.00 | 0.00 | 81 | 1012.2 |
| 20260508041003 | 6 | 236 | 0.0 | 4.8 | 0.00 | 0.00 | 0.00 | 81 | 1012.1 |
| 20260508040504 | 6 | 200 | 0.0 | 3.2 | 0.00 | 0.00 | 0.00 | 80 | 1012.1 |
| 20260508040014 | 7 | 179 | 0.0 | 3.2 | 0.00 | 0.00 | 0.00 | 80 | 1012.1 |
| 20260508035512 | 7 | 179 | 0.0 | 4.8 | 0.00 | 0.00 | 0.00 | 80 | 1012.1 |
| 20260508035006 | 7 | 201 | 1.6 | 6.4 | 0.00 | 0.00 | 0.00 | 79 | 1012.1 |
| 20260508034521 | 7 | 204 | 3.2 | 9.7 | 0.00 | 0.00 | 0.00 | 79 | 1012.1 |
| 20260508034007 | 7 | 167 | 3.2 | 9.7 | 0.00 | 0.00 | 0.00 | 79 | 1012.2 |
| 20260508033506 | 7 | 199 | 1.6 | 6.4 | 0.00 | 0.00 | 0.00 | 79 | 1012.2 |
| 20260508033022 | 7 | 205 | 3.2 | 8.0 | 0.00 | 0.00 | 0.00 | 79 | 1012.2 |
| 20260508032504 | 7 | 204 | 0.0 | 8.0 | 0.00 | 0.00 | 0.00 | 79 | 1012.2 |
| 20260508032004 | 7 | 188 | 0.0 | 4.8 | 0.00 | 0.00 | 0.00 | 79 | 1012.2 |
| 20260508031507 | 7 | 190 | 1.6 | 4.8 | 0.00 | 0.00 | 0.00 | 78 | 1012.3 |
| 20260508031003 | 7 | 194 | 1.6 | 6.4 | 0.00 | 0.00 | 0.00 | 78 | 1012.2 |
| 20260508030503 | 7 | 201 | 0.0 | 6.4 | 0.00 | 0.00 | 0.00 | 78 | 1012.3 |
| 20260508030013 | 7 | 215 | 1.6 | 6.4 | 0.00 | 0.00 | 0.00 | 78 | 1012.4 |
| 20260508025507 | 7 | 205 | 0.0 | 4.8 | 0.00 | 0.00 | 0.00 | 78 | 1012.4 |
| 20260508025009 | 7 | 207 | 0.0 | 4.8 | 0.00 | 0.00 | 0.00 | 77 | 1012.4 |
| 20260508024516 | 7 | 177 | 0.0 | 3.2 | 0.00 | 0.00 | 0.00 | 76 | 1012.5 |
| 20260508024007 | 7 | 176 | 0.0 | 6.4 | 0.00 | 0.00 | 0.00 | 76 | 1012.4 |
| 20260508023507 | 8 | 198 | 0.0 | 6.4 | 0.00 | 0.00 | 0.00 | 76 | 1012.5 |
| 20260508023026 | 8 | 217 | 1.6 | 8.0 | 0.00 | 0.00 | 0.00 | 75 | 1012.4 |
| 20260508022509 | 8 | 227 | 0.0 | 8.0 | 0.00 | 0.00 | 0.00 | 75 | 1012.4 |
| 20260508022009 | 8 | 215 | 1.6 | 8.0 | 0.00 | 0.00 | 0.00 | 75 | 1012.3 |
| 20260508021527 | 8 | 184 | 0.0 | 12.9 | 0.00 | 0.00 | 0.00 | 74 | 1012.4 |
| 20260508021004 | 8 | 221 | 4.8 | 14.5 | 0.00 | 0.00 | 0.00 | 74 | 1012.4 |
| 20260508020502 | 8 | 223 | 6.4 | 16.1 | 0.00 | 0.00 | 0.00 | 73 | 1012.4 |
| 20260508020013 | 8 | 216 | 4.8 | 19.3 | 0.00 | 0.00 | 0.00 | 73 | 1012.4 |
| 20260508015502 | 8 | 214 | 6.4 | 19.3 | 0.00 | 0.00 | 0.00 | 72 | 1012.4 |
| 20260508015006 | 8 | 246 | 6.4 | 16.1 | 0.00 | 0.00 | 0.00 | 72 | 1012.5 |
| 20260508014515 | 8 | 210 | 6.4 | 22.5 | 0.00 | 0.00 | 0.00 | 72 | 1012.4 |
| 20260508014009 | 8 | 252 | 4.8 | 22.5 | 0.00 | 0.00 | 0.00 | 72 | 1012.3 |
| 20260508013511 | 8 | 166 | 4.8 | 14.5 | 0.00 | 0.00 | 0.00 | 71 | 1012.3 |
| 20260508013021 | 8 | 160 | 6.4 | 14.5 | 0.00 | 0.00 | 0.00 | 71 | 1012.2 |
| 20260508012508 | 9 | 212 | 3.2 | 12.9 | 0.00 | 0.00 | 0.00 | 71 | 1012.0 |